Latest Weather Observations for Spring Bay

IDT60801

Issued at 7:05 pm EST Tuesday 16 September 2014 (issued every 30 minutes, with the page automatically refreshed every 10 minutes)

About weather observations | Map of weather stations | Latest weather observations for TAS | Other Formats
Station Details ID: 092133 Name: SPRING BAY NTC AWS Lat: -42.55 Lon: 147.93 Height: 0.0 m
Data from the previous 72 hours. | See also: Recent months for locations in Tasmania
Date/Time
EST
Temp
°C
App
Temp
°C
Dew
Point
Rel
Hum
%
Delta-T
°C
Wind Press
QNH
hPa
Press
MSL
hPa
Rain
since 9 am
mm
Dir
 
Spd
km/h
Gust
km/h
Spd
kts
Gust
kts
16/07:00pm 10.8 - - - - N 9 11 5 6 1009.2 1009.2 -
16/06:30pm 11.1 - - - - N 7 13 4 7 1009.1 1009.1 -
16/06:00pm 11.6 - - - - N 13 19 7 10 1009.2 1009.2 -
16/05:30pm 11.9 - - - - N 13 22 7 12 1009.0 1009.0 -
16/05:00pm 12.2 - - - - N 15 26 8 14 1009.0 1009.0 -
16/04:30pm 12.4 - - - - N 15 28 8 15 1009.0 1009.0 -
16/04:00pm 12.5 - - - - N 15 26 8 14 1009.0 1009.0 -
16/03:30pm 12.5 - - - - N 20 28 11 15 1009.3 1009.3 -
16/03:00pm 12.6 - - - - N 13 24 7 13 1009.2 1009.2 -
16/02:30pm 12.6 - - - - N 13 20 7 11 1009.4 1009.4 -
16/02:00pm 12.5 - - - - NNE 15 28 8 15 1009.5 1009.5 -
16/01:30pm 12.7 - - - - NNE 13 26 7 14 1009.7 1009.7 -
16/01:00pm 12.6 - - - - NNE 19 30 10 16 1010.0 1010.0 -
16/12:30pm 13.1 - - - - NNE 13 24 7 13 1010.5 1010.5 -
16/12:00pm 12.7 - - - - NE 19 26 10 14 1011.0 1011.0 -
16/11:30am 12.8 - - - - NNE 15 22 8 12 1011.5 1011.5 -
16/11:00am 11.9 - - - - NNE 15 20 8 11 1011.9 1011.9 -
16/10:30am 12.3 - - - - ENE 6 15 3 8 1012.5 1012.5 -
16/10:00am 9.9 - - - - S 6 7 3 4 1012.8 1012.8 -
16/09:30am 9.7 - - - - SSW 6 11 3 6 1013.1 1013.1 -
16/09:00am 8.4 - - - - SSE 2 6 1 3 1013.4 1013.4 -
16/08:30am 7.9 - - - - CALM 0 2 0 1 1013.6 1013.6 -
16/08:00am 7.1 - - - - WNW 2 4 1 2 1013.7 1013.7 -
16/07:30am 6.3 - - - - NW 4 6 2 3 1013.7 1013.7 -
16/07:00am 5.5 - - - - NW 6 9 3 5 1013.7 1013.7 -
16/06:30am 5.7 - - - - WNW 7 13 4 7 1013.7 1013.7 -
16/06:00am 5.6 - - - - NW 7 11 4 6 1013.5 1013.5 -
16/05:30am 6.0 - - - - WNW 6 7 3 4 1013.5 1013.5 -
16/05:00am 6.0 - - - - W 6 7 3 4 1013.6 1013.6 -
16/04:30am 5.9 - - - - WNW 7 11 4 6 1013.6 1013.6 -
16/04:00am 5.9 - - - - WNW 7 11 4 6 1013.5 1013.5 -
16/03:30am 6.7 - - - - NW 7 11 4 6 1013.6 1013.6 -
16/03:00am 6.5 - - - - NW 6 9 3 5 1013.9 1013.9 -
16/02:30am 7.2 - - - - WNW 4 6 2 3 1014.2 1014.2 -
16/02:00am 7.2 - - - - W 2 4 1 2 1014.4 1014.4 -
16/01:30am 7.0 - - - - NW 7 9 4 5 1014.8 1014.8 -
16/01:00am 7.0 - - - - NW 9 11 5 6 1015.3 1015.3 -
16/12:30am 7.5 - - - - NW 7 11 4 6 1015.4 1015.4 -
16/12:00am 7.5 - - - - NW 7 11 4 6 1015.5 1015.5 -
 
Date/Time
EST
Temp
°C
App
Temp
°C
Dew
Point
Rel
Hum
%
Delta-T
°C
Wind Press
QNH
hPa
Press
MSL
hPa
Rain
since 9 am
mm
Dir
 
Spd
km/h
Gust
km/h
Spd
kts
Gust
kts
15/11:30pm 7.6 - - - - NW 9 11 5 6 1015.9 1015.9 -
15/11:00pm 7.8 - - - - NW 7 11 4 6 1016.2 1016.2 -
15/10:30pm 7.8 - - - - NW 7 9 4 5 1016.3 1016.3 -
15/10:00pm 8.5 - - - - WNW 6 7 3 4 1016.4 1016.4 -
15/09:30pm 8.8 - - - - NW 6 9 3 5 1016.6 1016.6 -
15/09:00pm 9.1 - - - - WNW 4 9 2 5 1016.7 1016.7 -
15/08:30pm 8.8 - - - - NNW 7 11 4 6 1016.8 1016.8 -
15/08:00pm 9.6 - - - - NE 4 9 2 5 1016.8 1016.8 -
15/07:30pm 10.1 - - - - ESE 9 15 5 8 1016.8 1016.8 -
15/07:00pm 10.1 - - - - ESE 11 13 6 7 1016.8 1016.8 -
15/06:30pm 10.0 - - - - E 11 17 6 9 1016.6 1016.6 -
15/06:00pm 10.5 - - - - E 13 19 7 10 1016.4 1016.4 -
15/05:30pm 11.0 - - - - E 15 19 8 10 1016.3 1016.3 -
15/05:00pm 11.3 - - - - ESE 15 20 8 11 1016.2 1016.2 -
15/04:30pm 11.3 - - - - ESE 19 26 10 14 1016.0 1016.0 -
15/04:00pm 12.0 - - - - ESE 22 30 12 16 1015.9 1015.9 -
15/03:30pm 12.1 - - - - SE 26 30 14 16 1015.9 1015.9 -
15/03:00pm 12.0 - - - - SE 28 32 15 17 1016.1 1016.1 -
15/02:30pm 11.9 - - - - SE 28 32 15 17 1016.4 1016.4 -
15/02:00pm 11.7 - - - - ESE 26 32 14 17 1016.5 1016.5 -
15/01:30pm 11.9 - - - - ESE 28 33 15 18 1016.8 1016.8 -
15/01:00pm 11.8 - - - - SE 24 30 13 16 1017.1 1017.1 -
15/12:30pm 11.5 - - - - SE 19 22 10 12 1017.5 1017.5 -
15/12:00pm 11.9 - - - - ESE 11 19 6 10 1017.8 1017.8 -
15/11:30am 11.8 - - - - S 11 22 6 12 1018.1 1018.1 -
15/11:00am 11.2 - - - - SSE 9 17 5 9 1018.2 1018.2 -
15/10:30am 11.7 - - - - SSE 17 20 9 11 1018.4 1018.4 -
15/10:00am 10.8 - - - - WSW 13 20 7 11 1018.6 1018.6 -
15/09:30am 10.1 - - - - W 17 22 9 12 1018.7 1018.7 -
15/09:00am 10.1 - - - - SW 19 26 10 14 1018.6 1018.6 -
15/08:30am 9.2 - - - - SW 22 30 12 16 1018.5 1018.5 -
15/08:00am 8.6 - - - - SW 19 24 10 13 1018.5 1018.5 -
15/07:30am 7.5 - - - - SW 17 20 9 11 1018.4 1018.4 -
15/07:00am 7.2 - - - - WSW 13 19 7 10 1018.4 1018.4 -
15/06:30am 7.8 - - - - SW 20 26 11 14 1018.4 1018.4 -
15/06:00am 7.3 - - - - SW 19 22 10 12 1018.3 1018.3 -
15/05:30am 7.0 - - - - SW 19 22 10 12 1018.1 1018.1 -
15/05:00am 7.4 - - - - WSW 15 20 8 11 1018.1 1018.1 -
15/04:30am 7.5 - - - - WSW 15 20 8 11 1018.1 1018.1 -
15/04:00am 7.3 - - - - WSW 11 17 6 9 1018.1 1018.1 -
15/03:30am 7.3 - - - - WSW 15 19 8 10 1018.1 1018.1 -
15/03:00am 7.4 - - - - WSW 15 20 8 11 1018.0 1018.0 -
15/02:30am 8.4 - - - - WSW 17 24 9 13 1018.1 1018.1 -
15/02:00am 8.5 - - - - SW 15 20 8 11 1018.2 1018.2 -
15/01:30am 8.4 - - - - SW 19 24 10 13 1018.4 1018.4 -
15/01:00am 8.6 - - - - SSW 20 24 11 13 1018.6 1018.6 -
15/12:30am 8.6 - - - - SSW 19 22 10 12 1018.5 1018.5 -
15/12:00am 8.8 - - - - SW 20 26 11 14 1018.4 1018.4 -
 
Date/Time
EST
Temp
°C
App
Temp
°C
Dew
Point
Rel
Hum
%
Delta-T
°C
Wind Press
QNH
hPa
Press
MSL
hPa
Rain
since 9 am
mm
Dir
 
Spd
km/h
Gust
km/h
Spd
kts
Gust
kts
14/11:30pm 9.0 - - - - SW 22 28 12 15 1018.4 1018.4 -
14/11:00pm 9.3 - - - - SW 22 30 12 16 1018.4 1018.4 -
14/10:30pm 9.1 - - - - SW 15 20 8 11 1018.4 1018.4 -
14/10:00pm 9.3 - - - - WSW 13 19 7 10 1018.5 1018.5 -
14/09:30pm 9.8 - - - - SW 20 24 11 13 1018.5 1018.5 -
14/09:00pm 9.7 - - - - WSW 13 19 7 10 1018.6 1018.6 -
14/08:30pm 10.2 - - - - SW 19 22 10 12 1018.3 1018.3 -
14/08:00pm 10.5 - - - - SW 9 15 5 8 1017.9 1017.9 -
14/07:30pm 11.3 - - - - SSW 22 30 12 16 1017.5 1017.5 -
14/07:00pm 11.7 - - - - S 28 39 15 21 1017.2 1017.2 -
14/06:30pm 11.9 - - - - S 32 39 17 21 1016.8 1016.8 -
14/06:00pm 12.3 - - - - S 32 43 17 23 1016.4 1016.4 -
14/05:30pm 12.8 - - - - S 24 33 13 18 1015.9 1015.9 -
14/05:00pm 13.1 - - - - S 26 35 14 19 1015.6 1015.6 -
14/04:30pm 13.4 - - - - SSW 35 43 19 23 1015.2 1015.2 -
14/04:00pm 13.7 - - - - SSW 32 41 17 22 1015.0 1015.0 -
14/03:30pm 13.9 - - - - SW 30 41 16 22 1014.9 1014.9 -
14/03:00pm 13.9 - - - - SSW 32 41 17 22 1014.7 1014.7 -
14/02:30pm 13.8 - - - - SSW 24 33 13 18 1014.5 1014.5 -
14/02:00pm 13.7 - - - - SSW 30 39 16 21 1014.6 1014.6 -
14/01:30pm 14.3 - - - - SW 33 46 18 25 1014.4 1014.4 -
14/01:00pm 14.2 - - - - WSW 26 41 14 22 1014.3 1014.3 -
14/12:30pm 14.1 - - - - WSW 30 43 16 23 1014.3 1014.3 -
14/12:00pm 13.7 - - - - WSW 28 41 15 22 1014.6 1014.6 -
14/11:30am 13.5 - - - - WSW 26 35 14 19 1014.6 1014.6 -
14/11:00am 13.5 - - - - SW 26 37 14 20 1014.6 1014.6 -
14/10:35am 13.1 - - - - SW 30 50 16 27 1014.7 1014.7 -
14/10:30am 13.2 - - - - SW 30 44 16 24 1014.7 1014.7 -
14/10:00am 12.7 - - - - SW 28 54 15 29 1015.0 1015.0 -
14/09:52am 13.0 - - - - SW 32 50 17 27 1014.9 1014.9 -
14/09:30am 12.8 - - - - SSW 35 44 19 24 1014.6 1014.6 -
14/09:00am 12.7 - - - - SSW 26 37 14 20 1014.8 1014.8 -
14/08:30am 11.9 - - - - SSW 19 28 10 15 1014.6 1014.6 -
14/08:00am 11.6 - - - - SSW 30 48 16 26 1014.2 1014.2 -
14/07:56am 11.6 - - - - SSW 28 48 15 26 1014.2 1014.2 -
14/07:30am 11.4 - - - - S 9 20 5 11 1013.8 1013.8 -
14/07:00am 10.8 - - - - WSW 19 24 10 13 1013.4 1013.4 -
14/06:30am 10.4 - - - - WNW 6 11 3 6 1013.0 1013.0 -
14/06:00am 9.6 - - - - SE 4 7 2 4 1012.8 1012.8 -
14/05:30am 9.6 - - - - NW 13 15 7 8 1012.3 1012.3 -

Other Formats:

Comma delimited format used in spreadsheet applications
http://www.bom.gov.au/fwo/IDT60801/IDT60801.95987.axf

JavaScript Object Notation format (JSON) in row-major order
http://www.bom.gov.au/fwo/IDT60801/IDT60801.95987.json